Time;durP1;ratioP1;P1;durP2;ratioP2;P2;SDS_P1;SDS_P2;PMS_P1;PMS_P2;Temp;Humidity;BMP_temperature;BMP_pressure;BME280_temperature;BME280_humidity;BME280_pressure;Samples;Min_cycle;Max_cycle;Signal;HPM_P1;HPM_P2
2021/04/27 00:01:51;;;;;;;;;;;;;;;-142.75;56.13;78371.84;5050602;28;19976;-75
2021/04/27 00:04:16;;;;;;;;;;;;;;;-142.75;56.42;78377.75;5051086;28;19919;-75
2021/04/27 00:06:41;;;;;;;;;;;;;;;-142.75;56.34;78381.69;5051307;28;20006;-73
2021/04/27 00:09:07;;;;;;;;;;;;;;;-142.75;56.38;78389.56;5068622;28;19912;-75
2021/04/27 00:11:33;;;;;;;;;;;;;;;-142.75;56.58;78393.50;5081426;28;19916;-73
2021/04/27 00:13:58;;;;;;;;;;;;;;;-142.75;56.67;78393.50;5088761;28;19912;-74
2021/04/27 00:16:24;;;;;;;;;;;;;;;-142.75;56.80;78393.50;5088381;28;20317;-74
2021/04/27 00:18:49;;;;;;;;;;;;;;;-142.75;56.95;78399.44;5088685;28;19994;-74
2021/04/27 00:21:14;;;;;;;;;;;;;;;-142.75;56.74;78385.63;5088156;28;19942;-74
2021/04/27 00:23:39;;;;;;;;;;;;;;;-142.75;56.57;78385.63;5088501;28;19912;-74
2021/04/27 00:26:05;;;;;;;;;;;;;;;-142.75;56.63;78381.69;5070138;28;20310;-73
2021/04/27 00:28:30;;;;;;;;;;;;;;;-142.75;56.79;78389.56;5088082;28;19986;-74
2021/04/27 00:30:55;;;;;;;;;;;;;;;-142.75;56.95;78389.56;5087865;28;19924;-74
2021/04/27 00:33:20;;;;;;;;;;;;;;;-142.75;56.89;78391.53;5088188;28;19918;-73
2021/04/27 00:35:45;;;;;;;;;;;;;;;-142.75;57.02;78393.50;5088059;28;19912;-73
2021/04/27 00:38:11;;;;;;;;;;;;;;;-142.75;56.94;78397.44;5070655;28;19999;-74
2021/04/27 00:40:36;;;;;;;;;;;;;;;-142.75;56.82;78393.50;5087792;28;20005;-74
2021/04/27 00:43:01;;;;;;;;;;;;;;;-142.75;56.93;78385.63;5082491;28;19912;-75
2021/04/27 00:45:29;;;;;;;;;;;;;;;-142.75;57.09;78399.44;5050010;28;19912;-74
2021/04/27 00:47:54;;;;;;;;;;;;;;;-142.75;56.90;78399.44;5050105;28;20003;-74
2021/04/27 00:50:22;;;;;;;;;;;;;;;-142.75;56.91;78393.50;5067943;28;20003;-73
2021/04/27 00:52:47;;;;;;;;;;;;;;;-142.75;57.10;78405.34;5068115;28;20405;-75
2021/04/27 00:55:13;;;;;;;;;;;;;;;-142.75;57.18;78401.38;5067820;28;20011;-73
2021/04/27 00:57:38;;;;;;;;;;;;;;;-142.75;57.39;78403.38;5067881;28;19943;-74
2021/04/27 01:00:06;;;;;;;;;;;;;;;-142.75;57.39;78413.22;5070288;28;19913;-74
2021/04/27 01:02:33;;;;;;;;;;;;;;;-142.75;57.43;78421.09;5087187;28;19916;-75
2021/04/27 01:04:58;;;;;;;;;;;;;;;-142.75;57.42;78419.13;5069717;28;19916;-74
2021/04/27 01:07:27;;;;;;;;;;;;;;;-142.75;57.27;78428.97;5088448;28;20287;-74
2021/04/27 01:09:58;;;;;;;;;;;;;;;-142.75;57.61;78427.00;5087709;28;20287;-74
2021/04/27 01:12:30;;;;;;;;;;;;;;;-142.75;57.63;78432.91;5087570;28;19958;-73
2021/04/27 01:15:15;;;;;;;;;;;;;;;-142.75;57.39;78434.88;5069849;28;20583;-75
2021/04/27 01:17:41;;;;;;;;;;;;;;;-142.75;57.30;78427.00;5087067;28;19912;-75
2021/04/27 01:20:10;;;;;;;;;;;;;;;-142.75;57.67;78434.88;5087552;28;19916;-74
2021/04/27 01:22:53;;;;;;;;;;;;;;;-142.75;57.69;78442.75;5087874;28;20281;-75
2021/04/27 01:25:24;;;;;;;;;;;;;;;-142.75;57.98;78440.78;5061290;28;19961;-74
2021/04/27 01:27:49;;;;;;;;;;;;;;;-142.75;58.04;78444.72;5049714;28;19912;-74
2021/04/27 01:30:15;;;;;;;;;;;;;;;-142.75;58.32;78444.72;5067515;28;20396;-74
2021/04/27 01:32:40;;;;;;;;;;;;;;;-142.75;58.35;78450.63;5049403;28;19919;-73
2021/04/27 01:35:06;;;;;;;;;;;;;;;-142.75;58.31;78450.63;5067592;28;19968;-75
2021/04/27 01:37:31;;;;;;;;;;;;;;;-142.75;58.45;78456.53;5068096;28;19935;-74
2021/04/27 01:39:57;;;;;;;;;;;;;;;-142.75;58.23;78460.47;5067613;28;20015;-74
2021/04/27 01:42:22;;;;;;;;;;;;;;;-142.75;58.62;78458.50;5049301;28;20401;-75
2021/04/27 01:44:48;;;;;;;;;;;;;;;-142.75;58.95;78474.25;5067983;28;20311;-74
2021/04/27 01:47:13;;;;;;;;;;;;;;;-142.75;59.25;78486.06;5067295;28;19913;-74
2021/04/27 01:49:42;;;;;;;;;;;;;;;-142.75;59.32;78480.16;5049507;28;19924;-74
2021/04/27 01:52:07;;;;;;;;;;;;;;;-142.75;59.49;78480.16;5067258;28;19924;-75
2021/04/27 01:54:33;;;;;;;;;;;;;;;-142.75;59.68;78472.28;5064671;28;19916;-75
2021/04/27 01:56:58;;;;;;;;;;;;;;;-142.75;59.55;78476.22;5087168;28;19912;-75
2021/04/27 01:59:24;;;;;;;;;;;;;;;-142.75;59.38;78472.28;5087410;28;19912;-75
2021/04/27 02:01:49;;;;;;;;;;;;;;;-142.75;59.75;78474.25;5086887;28;19995;-75
2021/04/27 02:04:25;;;;;;;;;;;;;;;-142.75;59.50;78476.22;5065248;28;19916;-75
2021/04/27 02:06:51;;;;;;;;;;;;;;;-142.75;59.63;78484.09;5067460;28;19965;-74
2021/04/27 02:09:17;;;;;;;;;;;;;;;-142.75;59.67;78488.03;5081880;28;20571;-75
2021/04/27 02:11:44;;;;;;;;;;;;;;;-142.75;59.93;78491.97;5063299;28;20480;-76
2021/04/27 02:14:11;;;;;;;;;;;;;;;-142.75;59.77;78493.97;5074204;28;19912;-74
2021/04/27 02:16:39;;;;;;;;;;;;;;;-142.75;59.58;78499.88;5083243;28;20387;-74
2021/04/27 02:19:06;;;;;;;;;;;;;;;-142.75;59.78;78511.69;5070561;28;19912;-75
2021/04/27 02:21:32;;;;;;;;;;;;;;;-142.75;59.97;78509.72;5052486;28;20282;-74
2021/04/27 02:23:58;;;;;;;;;;;;;;;-142.75;60.29;78499.88;5070662;28;19912;-75
2021/04/27 02:26:23;;;;;;;;;;;;;;;-142.75;59.99;78503.81;5088902;28;19931;-75
2021/04/27 02:28:49;;;;;;;;;;;;;;;-142.75;59.99;78493.97;5090464;28;21110;-74
2021/04/27 02:31:14;;;;;;;;;;;;;;;-142.75;60.22;78499.88;5088817;28;19923;-75
2021/04/27 02:33:40;;;;;;;;;;;;;;;-142.75;60.59;78491.97;5068101;28;20016;-75
2021/04/27 02:36:06;;;;;;;;;;;;;;;-142.75;60.44;78486.06;5070278;28;20019;-75
2021/04/27 02:38:31;;;;;;;;;;;;;;;-142.75;60.53;78480.16;5065935;28;19919;-73
2021/04/27 02:40:57;;;;;;;;;;;;;;;-142.75;60.26;78484.09;5090076;28;19919;-75
2021/04/27 02:43:23;;;;;;;;;;;;;;;-142.75;60.60;78484.09;5090731;28;19985;-74
2021/04/27 02:45:49;;;;;;;;;;;;;;;-142.75;60.17;78472.28;5090125;28;19912;-74
2021/04/27 02:48:15;;;;;;;;;;;;;;;-142.75;60.28;78468.34;5090147;28;19919;-74
2021/04/27 02:50:42;;;;;;;;;;;;;;;-142.75;59.84;78466.38;5085534;28;20292;-75
2021/04/27 02:53:07;;;;;;;;;;;;;;;-142.75;59.88;78468.34;5088968;28;20003;-75
2021/04/27 02:55:32;;;;;;;;;;;;;;;-142.75;60.07;78468.34;5089919;28;20015;-76
2021/04/27 02:57:58;;;;;;;;;;;;;;;-142.75;59.81;78472.28;5089919;28;19916;-74
2021/04/27 03:00:23;;;;;;;;;;;;;;;-142.75;59.82;78476.22;5089753;28;19942;-74
2021/04/27 03:02:48;;;;;;;;;;;;;;;-142.75;59.78;78472.28;5089821;28;19912;-75
2021/04/27 03:05:14;;;;;;;;;;;;;;;-142.75;60.04;78480.16;5089683;28;20308;-74
2021/04/27 03:07:39;;;;;;;;;;;;;;;-142.75;60.00;78476.22;5072452;28;19919;-74
2021/04/27 03:10:05;;;;;;;;;;;;;;;-142.75;60.04;78472.28;5089592;28;19916;-74
2021/04/27 03:12:30;;;;;;;;;;;;;;;-142.75;59.85;78472.28;5089463;28;19912;-74
2021/04/27 03:14:55;;;;;;;;;;;;;;;-142.75;59.81;78476.22;5090125;28;19956;-74
2021/04/27 03:17:20;;;;;;;;;;;;;;;-142.75;60.02;78484.09;5061034;23;20267;-73
2021/04/27 03:19:46;;;;;;;;;;;;;;;-142.75;59.97;78488.03;5047875;28;19917;-73
2021/04/27 03:22:11;;;;;;;;;;;;;;;-142.75;59.66;78488.03;5050976;28;19913;-73
2021/04/27 03:24:36;;;;;;;;;;;;;;;-142.75;59.64;78488.03;5049311;28;19916;-73
2021/04/27 03:27:02;;;;;;;;;;;;;;;-142.75;59.79;78497.91;5056469;28;19954;-73
2021/04/27 03:29:27;;;;;;;;;;;;;;;-142.75;59.65;78491.97;5068539;28;19912;-72
2021/04/27 03:31:53;;;;;;;;;;;;;;;-142.75;59.79;78497.91;5058204;28;19920;-73
2021/04/27 03:34:18;;;;;;;;;;;;;;;-142.75;59.74;78493.97;5061400;28;20326;-72
2021/04/27 03:36:43;;;;;;;;;;;;;;;-142.75;60.07;78503.81;5068948;28;19939;-74
2021/04/27 03:39:08;;;;;;;;;;;;;;;-142.75;60.25;78509.72;5046013;28;19912;-74
2021/04/27 03:41:33;;;;;;;;;;;;;;;-142.75;60.34;78519.56;5050648;28;19918;-74
2021/04/27 03:43:59;;;;;;;;;;;;;;;-142.75;60.57;78529.41;5069289;28;19916;-74
2021/04/27 03:46:24;;;;;;;;;;;;;;;-142.75;61.07;78535.31;5060914;28;19913;-74
2021/04/27 03:48:49;;;;;;;;;;;;;;;-142.75;60.92;78541.22;5031116;28;19923;-73
2021/04/27 03:51:14;;;;;;;;;;;;;;;-142.75;61.06;78545.16;5048599;28;20354;-74
2021/04/27 03:53:39;;;;;;;;;;;;;;;-142.75;61.03;78543.19;5046042;28;20322;-73
2021/04/27 03:56:05;;;;;;;;;;;;;;;-142.75;61.07;78541.22;5048504;28;19912;-73
2021/04/27 03:58:30;;;;;;;;;;;;;;;-142.75;60.88;78539.25;5061740;28;19991;-74
2021/04/27 04:00:55;;;;;;;;;;;;;;;-142.75;60.87;78543.19;5037820;28;20481;-74
2021/04/27 04:03:21;;;;;;;;;;;;;;;-142.75;60.75;78527.44;5030952;28;19913;-74
2021/04/27 04:05:46;;;;;;;;;;;;;;;-142.75;60.75;78531.38;5050224;28;20399;-75
2021/04/27 04:08:12;;;;;;;;;;;;;;;-142.75;60.83;78533.34;5052936;28;19992;-74
2021/04/27 04:10:37;;;;;;;;;;;;;;;-142.75;60.83;78531.38;5050126;28;19928;-73
2021/04/27 04:13:02;;;;;;;;;;;;;;;-142.75;60.93;78529.41;5068413;28;19912;-73
2021/04/27 04:15:27;;;;;;;;;;;;;;;-142.75;60.69;78531.38;5052193;28;19912;-74
2021/04/27 04:17:53;;;;;;;;;;;;;;;-142.75;61.03;78531.38;5048429;28;20018;-73
2021/04/27 04:20:19;;;;;;;;;;;;;;;-142.75;60.75;78527.44;5031471;28;19912;-72
2021/04/27 04:22:45;;;;;;;;;;;;;;;-142.75;60.59;78523.50;5065337;28;19946;-74
2021/04/27 04:25:11;;;;;;;;;;;;;;;-142.75;60.57;78531.38;5068119;28;19913;-73
2021/04/27 04:27:37;;;;;;;;;;;;;;;-142.75;60.84;78527.44;5048425;28;19959;-74
2021/04/27 04:30:07;;;;;;;;;;;;;;;-142.75;60.76;78515.63;5047420;28;22084;-74
2021/04/27 04:32:32;;;;;;;;;;;;;;;-142.75;61.37;78519.56;5053829;28;19963;-73
2021/04/27 04:34:57;;;;;;;;;;;;;;;-142.75;61.58;78511.69;5063871;28;19916;-73
2021/04/27 04:37:23;;;;;;;;;;;;;;;-142.75;61.10;78503.81;5048097;28;19913;-73
2021/04/27 04:39:48;;;;;;;;;;;;;;;-142.75;61.10;78490.00;5030471;28;20389;-74
2021/04/27 04:42:13;;;;;;;;;;;;;;;-142.75;61.28;78480.16;5062572;28;19956;-74
2021/04/27 04:44:38;;;;;;;;;;;;;;;-142.75;61.28;78478.19;5063595;28;19912;-74
2021/04/27 04:47:03;;;;;;;;;;;;;;;-142.75;61.28;78472.28;5039994;28;20373;-74
2021/04/27 04:49:29;;;;;;;;;;;;;;;-142.75;61.17;78472.28;5048055;28;19916;-74
2021/04/27 04:51:54;;;;;;;;;;;;;;;-142.75;60.90;78464.41;5030007;28;19917;-73
2021/04/27 04:54:20;;;;;;;;;;;;;;;-142.75;60.47;78442.75;5058649;28;19916;-73
2021/04/27 04:56:45;;;;;;;;;;;;;;;-142.75;60.04;78417.16;5064446;28;19920;-72
2021/04/27 04:59:10;;;;;;;;;;;;;;;-142.75;59.39;78391.53;5061162;28;20058;-74
2021/04/27 05:01:35;;;;;;;;;;;;;;;-142.75;59.32;78362.00;5067418;28;19919;-73
2021/04/27 05:04:00;;;;;;;;;;;;;;;-142.75;59.12;78365.94;5067708;28;20270;-74
2021/04/27 05:06:27;;;;;;;;;;;;;;;-142.75;59.13;78362.00;5035094;28;20042;-74
2021/04/27 05:08:54;;;;;;;;;;;;;;;-142.75;59.21;78346.25;5057754;28;19912;-73
2021/04/27 05:11:20;;;;;;;;;;;;;;;-142.75;58.96;78330.50;5047902;28;20385;-74
2021/04/27 05:13:45;;;;;;;;;;;;;;;-142.75;57.92;78322.63;5060630;28;19912;-74
2021/04/27 05:16:11;;;;;;;;;;;;;;;-142.75;57.88;78310.81;5044271;28;19962;-73
2021/04/27 05:18:37;;;;;;;;;;;;;;;-142.75;57.81;78299.00;5060341;28;19920;-73
2021/04/27 05:21:02;;;;;;;;;;;;;;;-142.75;57.54;78279.28;5067204;28;19912;-73
2021/04/27 05:23:28;;;;;;;;;;;;;;;-142.75;57.35;78263.53;5050096;28;19955;-74
2021/04/27 05:25:53;;;;;;;;;;;;;;;-142.75;57.02;78243.84;5062135;28;19912;-73
2021/04/27 05:28:18;;;;;;;;;;;;;;;-142.75;56.88;78234.00;5065472;28;19912;-73
2021/04/27 05:30:43;;;;;;;;;;;;;;;-142.75;56.89;78220.22;5048999;28;19964;-74
2021/04/27 05:33:08;;;;;;;;;;;;;;;-142.75;56.79;78204.47;5066845;28;19916;-73
2021/04/27 05:35:34;;;;;;;;;;;;;;;-142.75;56.60;78188.72;5067320;28;19912;-72
2021/04/27 05:37:59;;;;;;;;;;;;;;;-142.75;56.54;78125.69;5034694;28;20302;-73
2021/04/27 05:40:25;;;;;;;;;;;;;;;-142.75;55.27;78011.47;5052985;28;19924;-72
2021/04/27 05:42:50;;;;;;;;;;;;;;;-142.75;51.88;77930.75;5047291;28;20019;-74
2021/04/27 05:45:15;;;;;;;;;;;;;;;-142.75;52.06;77913.03;5030079;28;19924;-73
2021/04/27 05:47:40;;;;;;;;;;;;;;;-142.75;50.83;77909.06;5047293;28;20025;-74
2021/04/27 05:50:06;;;;;;;;;;;;;;;-142.75;52.02;77788.97;5050997;28;19944;-74
2021/04/27 05:52:31;;;;;;;;;;;;;;;-142.75;50.26;77684.59;5051039;28;19924;-75
2021/04/27 05:54:57;;;;;;;;;;;;;;;-142.75;47.83;77629.47;5033319;28;20592;-75
2021/04/27 05:57:22;;;;;;;;;;;;;;;-142.75;47.42;77556.63;5051118;28;19925;-73
2021/04/27 05:59:47;;;;;;;;;;;;;;;-142.75;44.20;77529.06;5050703;28;19924;-70
2021/04/27 06:02:12;;;;;;;;;;;;;;;-142.75;46.69;77708.22;5033035;28;20015;-74
2021/04/27 06:04:37;;;;;;;;;;;;;;;-142.75;47.77;77765.34;5059378;28;19924;-75
2021/04/27 06:07:03;;;;;;;;;;;;;;;-142.75;49.45;77895.28;5041374;28;19916;-73
2021/04/27 06:09:28;;;;;;;;;;;;;;;-142.75;51.50;77972.09;5033745;28;19928;-74
2021/04/27 06:11:56;;;;;;;;;;;;;;;-142.75;51.99;77960.28;5057706;28;19932;-73
2021/04/27 06:14:21;;;;;;;;;;;;;;;-142.75;51.92;77938.63;5047596;28;19945;-73
2021/04/27 06:16:46;;;;;;;;;;;;;;;-142.75;51.84;77960.28;5068878;28;19916;-72
2021/04/27 06:19:11;;;;;;;;;;;;;;;-142.75;52.32;77964.22;5060951;28;19923;-73
2021/04/27 06:21:37;;;;;;;;;;;;;;;-142.75;53.16;77976.03;5049503;28;19917;-72
2021/04/27 06:24:02;;;;;;;;;;;;;;;-142.75;52.40;77968.16;5032130;28;19950;-72
2021/04/27 06:26:27;;;;;;;;;;;;;;;-142.75;51.85;77976.03;5055474;28;19917;-71
2021/04/27 06:28:53;;;;;;;;;;;;;;;-142.75;52.73;77999.66;5069347;28;20312;-71
2021/04/27 06:31:18;;;;;;;;;;;;;;;-142.75;52.35;77987.84;5042168;28;19925;-71
2021/04/27 06:33:43;;;;;;;;;;;;;;;-142.75;53.00;78003.59;5031821;28;19923;-71
2021/04/27 06:36:09;;;;;;;;;;;;;;;-142.75;53.54;77983.91;5049876;28;20298;-71
2021/04/27 06:38:34;;;;;;;;;;;;;;;-142.75;52.97;77948.47;5066830;28;19921;-72
2021/04/27 06:40:59;;;;;;;;;;;;;;;-142.75;52.37;77907.09;5063628;28;20373;-73
2021/04/27 06:43:25;;;;;;;;;;;;;;;-142.75;52.00;77891.34;5051320;28;19951;-72
2021/04/27 06:45:50;;;;;;;;;;;;;;;-142.75;51.43;77913.03;5033149;28;19916;-72
2021/04/27 06:48:15;;;;;;;;;;;;;;;-142.75;52.49;77926.81;5060605;28;19924;-73
2021/04/27 06:50:42;;;;;;;;;;;;;;;-142.75;53.05;77926.81;5031087;28;20589;-71
2021/04/27 06:53:08;;;;;;;;;;;;;;;-142.75;53.70;77948.47;5069258;28;20562;-73
2021/04/27 06:55:33;;;;;;;;;;;;;;;-142.75;53.08;77895.28;5051015;28;20286;-74
2021/04/27 06:58:02;;;;;;;;;;;;;;;-142.75;52.97;77855.91;5068872;28;19986;-74
2021/04/27 07:00:28;;;;;;;;;;;;;;;-142.75;51.46;77822.44;5068247;28;19916;-72
2021/04/27 07:02:53;;;;;;;;;;;;;;;-142.75;50.50;77848.03;5050768;28;19970;-73
2021/04/27 07:05:18;;;;;;;;;;;;;;;-142.75;51.82;77865.75;5068091;28;19920;-74
2021/04/27 07:07:43;;;;;;;;;;;;;;;-142.75;51.78;77885.44;5048395;28;19916;-73
2021/04/27 07:10:09;;;;;;;;;;;;;;;-142.75;52.50;77877.56;5069126;28;19929;-73
2021/04/27 07:12:34;;;;;;;;;;;;;;;-142.75;51.90;77826.38;5063029;28;19959;-74
2021/04/27 07:14:59;;;;;;;;;;;;;;;-142.75;51.55;77842.13;5049167;28;19928;-74
2021/04/27 07:17:24;;;;;;;;;;;;;;;-142.75;51.22;77785.03;5048584;28;19921;-72
2021/04/27 07:19:50;;;;;;;;;;;;;;;-142.75;50.67;77751.56;5048598;28;20275;-72
2021/04/27 07:22:15;;;;;;;;;;;;;;;-142.75;50.73;77731.88;5030660;28;19917;-73
2021/04/27 07:24:40;;;;;;;;;;;;;;;-142.75;50.64;77696.41;5048977;28;19916;-73
2021/04/27 07:27:06;;;;;;;;;;;;;;;-142.75;50.58;77698.38;5060041;28;20299;-74
2021/04/27 07:29:31;;;;;;;;;;;;;;;-142.75;49.48;77688.53;5060730;28;20526;-74
2021/04/27 07:31:56;;;;;;;;;;;;;;;-142.75;50.55;77722.00;5045917;28;19951;-74
2021/04/27 07:34:21;;;;;;;;;;;;;;;-142.75;50.31;77641.28;5055655;28;19939;-74
2021/04/27 07:36:47;;;;;;;;;;;;;;;-142.75;49.37;77544.81;5048284;28;19917;-77
2021/04/27 07:39:14;;;;;;;;;;;;;;;-142.75;47.28;77503.47;5036769;28;19963;-75
2021/04/27 07:41:40;;;;;;;;;;;;;;;-142.75;47.87;77456.22;5030591;28;19924;-74
2021/04/27 07:44:05;;;;;;;;;;;;;;;-142.75;46.83;77391.22;5030510;28;20039;-74
2021/04/27 07:46:30;;;;;;;;;;;;;;;-142.75;46.39;77389.25;5030240;28;19924;-73
2021/04/27 07:48:56;;;;;;;;;;;;;;;-142.75;46.86;77334.13;5030150;28;20372;-72
2021/04/27 07:51:21;;;;;;;;;;;;;;;-142.75;45.57;77275.06;5029743;28;19974;-73
2021/04/27 07:53:46;;;;;;;;;;;;;;;-142.75;45.62;77288.84;5030401;28;19921;-73
2021/04/27 07:56:11;;;;;;;;;;;;;;;-142.75;44.13;77324.28;5043054;28;19966;-74
2021/04/27 07:58:37;;;;;;;;;;;;;;;-142.75;45.02;77387.28;5038418;28;19917;-72
2021/04/27 08:01:02;;;;;;;;;;;;;;;-142.75;44.97;77385.31;5042684;28;19924;-74
2021/04/27 08:03:27;;;;;;;;;;;;;;;-142.75;46.39;77464.09;5029800;28;20375;-74
2021/04/27 08:05:53;;;;;;;;;;;;;;;-142.75;46.89;77529.06;5041111;28;19971;-74
2021/04/27 08:08:18;;;;;;;;;;;;;;;-142.75;47.95;77538.91;5049724;28;19916;-74
2021/04/27 08:10:44;;;;;;;;;;;;;;;-142.75;48.06;77558.59;5042820;28;19930;-72
2021/04/27 08:13:10;;;;;;;;;;;;;;;-142.75;45.75;77432.56;5067327;28;19927;-73
2021/04/27 08:15:35;;;;;;;;;;;;;;;-142.75;44.72;77353.81;5045499;28;20286;-72
2021/04/27 08:18:01;;;;;;;;;;;;;;;-142.75;43.36;77243.56;5044331;28;20453;-71
2021/04/27 08:20:27;;;;;;;;;;;;;;;-142.75;43.05;77088.03;5029491;28;19921;-72
2021/04/27 08:22:52;;;;;;;;;;;;;;;-142.75;40.99;77015.19;5060635;28;20453;-75
2021/04/27 08:25:18;;;;;;;;;;;;;;;-142.75;38.75;76973.84;5067003;28;20293;-73
2021/04/27 08:27:44;;;;;;;;;;;;;;;-142.75;38.84;77003.38;5049166;28;19931;-73
2021/04/27 08:30:10;;;;;;;;;;;;;;;-142.75;40.27;76977.78;5038579;28;20019;-75
2021/04/27 08:32:35;;;;;;;;;;;;;;;-142.75;39.13;76918.72;5046946;28;19948;-75
2021/04/27 08:35:02;;;;;;;;;;;;;;;-142.75;38.24;76956.13;5029638;28;20400;-73
2021/04/27 08:37:27;;;;;;;;;;;;;;;-142.75;38.94;76938.41;5057288;28;20290;-73
2021/04/27 08:39:52;;;;;;;;;;;;;;;-142.75;39.23;76810.44;5047933;28;19917;-74
2021/04/27 08:42:18;;;;;;;;;;;;;;;-142.75;37.34;76790.78;5047036;28;19916;-73
2021/04/27 08:44:43;;;;;;;;;;;;;;;-142.75;38.52;76666.75;5030895;28;20289;-75
2021/04/27 08:47:09;;;;;;;;;;;;;;;-142.75;35.77;76619.50;5047025;28;19920;-74
2021/04/27 08:49:34;;;;;;;;;;;;;;;-142.75;38.17;76755.34;5046575;28;19917;-75
2021/04/27 08:52:00;;;;;;;;;;;;;;;-142.75;35.47;76619.50;5047804;28;19923;-73
2021/04/27 08:54:25;;;;;;;;;;;;;;;-142.75;36.76;76794.69;5029615;28;20325;-74
2021/04/27 08:56:50;;;;;;;;;;;;;;;-142.75;36.80;76782.91;5046943;28;19921;-73
2021/04/27 08:59:16;;;;;;;;;;;;;;;-142.75;37.53;76804.53;5046846;28;19943;-74
2021/04/27 09:01:41;;;;;;;;;;;;;;;-142.75;36.19;76684.47;5046726;28;19966;-73
2021/04/27 09:04:07;;;;;;;;;;;;;;;-142.75;35.90;76700.22;5046937;28;19924;-74
2021/04/27 09:06:33;;;;;;;;;;;;;;;-142.75;36.19;76749.44;5028846;28;19920;-74
2021/04/27 09:08:58;;;;;;;;;;;;;;;-142.75;34.05;76611.63;5047620;28;19942;-74
2021/04/27 09:11:30;;;;;;;;;;;;;;;-142.75;35.13;76688.41;5028801;28;19925;-74
2021/04/27 09:14:09;;;;;;;;;;;;;;;-142.75;35.36;76745.50;5028854;28;19947;-76
2021/04/27 09:16:34;;;;;;;;;;;;;;;-142.75;36.24;76593.91;5046704;28;19917;-76
2021/04/27 09:19:00;;;;;;;;;;;;;;;-142.75;35.34;76629.34;5029036;28;20353;-73
2021/04/27 09:21:36;;;;;;;;;;;;;;;-142.75;34.13;76584.06;5028517;28;19986;-75
2021/04/27 09:24:11;;;;;;;;;;;;;;;-142.75;34.32;76597.84;5050787;28;20007;-74
2021/04/27 09:26:36;;;;;;;;;;;;;;;-142.75;35.74;76708.09;5050701;28;19961;-73
2021/04/27 09:29:02;;;;;;;;;;;;;;;-142.75;35.58;76670.69;5050629;28;20344;-75
2021/04/27 09:31:31;;;;;;;;;;;;;;;-142.75;35.52;76595.88;5052814;28;19973;-74
2021/04/27 09:34:15;;;;;;;;;;;;;;;-142.75;35.70;76578.16;5070323;28;19916;-75
2021/04/27 09:36:40;;;;;;;;;;;;;;;-142.75;32.26;76389.19;5052472;28;19943;-76
2021/04/27 09:39:05;;;;;;;;;;;;;;;-142.75;34.77;76391.16;5070819;28;20420;-74
2021/04/27 09:41:31;;;;;;;;;;;;;;;-142.75;31.99;76204.16;5060135;28;20003;-75
2021/04/27 09:43:56;;;;;;;;;;;;;;;-142.75;34.23;76501.41;5050419;28;20275;-77
2021/04/27 09:46:22;;;;;;;;;;;;;;;-142.75;35.82;76473.84;5052124;28;19917;-73
2021/04/27 09:48:49;;;;;;;;;;;;;;;-142.75;31.65;76217.94;5052506;28;19963;-74
2021/04/27 09:51:14;;;;;;;;;;;;;;;-142.75;31.69;76267.16;5053122;28;20309;-75
2021/04/27 09:53:53;;;;;;;;;;;;;;;-142.75;31.85;76347.84;5054013;28;19920;-74
2021/04/27 09:56:30;;;;;;;;;;;;;;;-142.75;32.16;76174.66;5071292;28;20294;-74
2021/04/27 09:59:03;;;;;;;;;;;;;;;-142.75;31.40;76046.72;5070948;28;19920;-77
2021/04/27 10:01:28;;;;;;;;;;;;;;;-142.75;30.04;76070.34;5070666;28;19916;-76
2021/04/27 10:03:54;;;;;;;;;;;;;;;-142.75;31.14;75932.56;5053571;28;20333;-76
2021/04/27 10:06:19;;;;;;;;;;;;;;;-142.75;30.57;75875.47;5065527;28;20039;-77
2021/04/27 10:08:44;;;;;;;;;;;;;;;-142.75;29.66;76143.16;5052125;28;19916;-75
2021/04/27 10:11:09;;;;;;;;;;;;;;;-142.75;31.05;76135.28;5050779;28;19928;-76
2021/04/27 10:13:35;;;;;;;;;;;;;;;-142.75;31.88;76369.50;5051084;28;20425;-74
2021/04/27 10:16:00;;;;;;;;;;;;;;;-142.75;31.67;76221.88;5032865;28;19916;-74
2021/04/27 10:18:30;;;;;;;;;;;;;;;-142.75;29.89;76202.19;5050310;28;19921;-75
2021/04/27 10:20:57;;;;;;;;;;;;;;;-142.75;31.09;76282.91;5050492;28;19917;-75
2021/04/27 10:23:23;;;;;;;;;;;;;;;-142.75;31.17;76091.97;5049628;28;19921;-75
2021/04/27 10:25:51;;;;;;;;;;;;;;;-142.75;31.36;76267.16;5050155;28;19932;-75
2021/04/27 10:28:16;;;;;;;;;;;;;;;-142.75;31.50;76334.09;5032066;28;19983;-74
2021/04/27 10:30:42;;;;;;;;;;;;;;;-142.75;29.91;76269.13;5049922;28;20382;-75
2021/04/27 10:33:11;;;;;;;;;;;;;;;-142.75;31.56;76278.97;5045020;28;19925;-75
2021/04/27 10:35:37;;;;;;;;;;;;;;;-142.75;30.52;76361.63;5031664;28;20356;-74
2021/04/27 10:38:09;;;;;;;;;;;;;;;-142.75;32.87;76298.66;5032416;28;19939;-74
2021/04/27 10:40:41;;;;;;;;;;;;;;;-142.75;32.27;76373.44;5050522;28;19924;-74
2021/04/27 10:43:22;;;;;;;;;;;;;;;-142.75;31.24;76225.81;5049286;28;19927;-75
2021/04/27 10:45:47;;;;;;;;;;;;;;;-142.75;31.70;76200.25;5048420;28;19924;-74
2021/04/27 10:48:24;;;;;;;;;;;;;;;-142.75;30.00;76109.69;5050745;28;19939;-76
2021/04/27 10:50:49;;;;;;;;;;;;;;;-142.75;31.49;76214.00;5050497;28;20002;-76
2021/04/27 10:53:30;;;;;;;;;;;;;;;-142.75;30.01;76312.44;5067108;28;19927;-74
2021/04/27 10:55:55;;;;;;;;;;;;;;;-142.75;30.41;76371.47;5049541;28;19917;-74
2021/04/27 10:58:39;;;;;;;;;;;;;;;-142.75;29.82;76393.13;5049751;28;19923;-75
2021/04/27 11:03:47;;;;;;;;;;;;;;;-142.75;32.40;76426.59;5082815;28;19928;-73
2021/04/27 11:06:15;;;;;;;;;;;;;;;-142.75;31.37;76456.13;5075574;28;20066;-73
2021/04/27 11:08:49;;;;;;;;;;;;;;;-142.75;30.79;76479.75;5071164;28;19916;-73
2021/04/27 11:11:19;;;;;;;;;;;;;;;-142.75;30.26;76387.22;5081928;28;19925;-74
2021/04/27 11:13:44;;;;;;;;;;;;;;;-142.75;30.80;76416.75;5109215;28;19951;-71
2021/04/27 11:16:29;;;;;;;;;;;;;;;-142.75;29.32;76397.06;5092316;28;19958;-73
2021/04/27 11:19:30;;;;;;;;;;;;;;;-142.75;29.21;76483.69;5090278;28;19920;-72
2021/04/27 11:22:14;;;;;;;;;;;;;;;-142.75;28.59;76446.28;5086974;28;20011;-73
2021/04/27 11:24:40;;;;;;;;;;;;;;;-142.75;31.08;76420.69;5086915;28;19924;-74
2021/04/27 11:27:06;;;;;;;;;;;;;;;-142.75;29.11;76401.00;5090332;28;19919;-74
2021/04/27 11:29:34;;;;;;;;;;;;;;;-142.75;31.63;76444.31;5109233;28;20021;-72
2021/04/27 11:32:04;;;;;;;;;;;;;;;-142.75;29.70;76499.44;5109917;28;21518;-71
2021/04/27 11:34:31;;;;;;;;;;;;;;;-142.75;29.81;76542.72;5109038;28;20288;-73
2021/04/27 11:36:58;;;;;;;;;;;;;;;-142.75;30.17;76491.56;5091309;28;20015;-73
2021/04/27 11:39:28;;;;;;;;;;;;;;;-142.75;29.58;76556.50;5092396;28;20377;-73
2021/04/27 11:41:55;;;;;;;;;;;;;;;-142.75;32.28;76523.06;5110041;28;19916;-73
2021/04/27 11:44:21;;;;;;;;;;;;;;;-142.75;28.51;76542.72;5093047;28;19955;-73
2021/04/27 11:46:57;;;;;;;;;;;;;;;-142.75;30.60;76609.66;5090036;28;19931;-74
2021/04/27 11:49:42;;;;;;;;;;;;;;;-142.75;30.54;76589.97;5109397;28;19955;-73
2021/04/27 11:52:07;;;;;;;;;;;;;;;-142.75;32.21;76601.78;5103427;28;19924;-74
2021/04/27 11:54:36;;;;;;;;;;;;;;;-142.75;33.00;76662.81;5088134;28;19916;-73
2021/04/27 11:57:01;;;;;;;;;;;;;;;-142.75;30.76;76666.75;5102339;28;19916;-72
2021/04/27 11:59:27;;;;;;;;;;;;;;;-142.75;30.21;76641.16;5087818;28;19916;-73
2021/04/27 12:02:02;;;;;;;;;;;;;;;-142.75;31.11;76692.34;5088712;28;20393;-72
2021/04/27 12:04:27;;;;;;;;;;;;;;;-142.75;31.82;76704.16;5108531;28;19919;-73
2021/04/27 12:06:59;;;;;;;;;;;;;;;-142.75;31.18;76688.41;5109522;28;20288;-74
2021/04/27 12:09:24;;;;;;;;;;;;;;;-142.75;31.86;76672.66;5091378;28;19916;-72
2021/04/27 12:11:49;;;;;;;;;;;;;;;-142.75;31.26;76672.66;5109170;28;19943;-73
2021/04/27 12:14:16;;;;;;;;;;;;;;;-142.75;33.04;76619.50;5087885;28;19916;-74
2021/04/27 12:16:42;;;;;;;;;;;;;;;-142.75;30.69;76627.38;5088233;28;19966;-74
2021/04/27 12:19:09;;;;;;;;;;;;;;;-142.75;30.66;76658.88;5089156;28;19916;-75
2021/04/27 12:21:34;;;;;;;;;;;;;;;-142.75;31.48;76664.78;5088352;28;19923;-74
2021/04/27 12:24:06;;;;;;;;;;;;;;;-142.75;32.04;76666.75;5099648;28;19915;-73
2021/04/27 12:26:32;;;;;;;;;;;;;;;-142.75;31.52;76631.31;5090583;28;20377;-74
2021/04/27 12:28:58;;;;;;;;;;;;;;;-142.75;31.83;76700.22;5108923;28;19937;-74